createdAt,value
2024-04-23T00:02:01.114Z,71.78
2024-04-23T00:04:30.847Z,71.05
2024-04-23T00:06:58.521Z,71.84
2024-04-23T00:09:30.728Z,70.75
2024-04-23T00:11:57.764Z,69.27
2024-04-23T00:14:27.123Z,70.89
2024-04-23T00:16:57.951Z,70.91
2024-04-23T00:19:27.400Z,71.57
2024-04-23T00:21:54.194Z,72.07
2024-04-23T00:24:23.555Z,71.17
2024-04-23T00:26:58.666Z,71.59
2024-04-23T00:29:28.383Z,72.27
2024-04-23T00:31:55.320Z,72.48
2024-04-23T00:34:25.054Z,72.25
2024-04-23T00:36:52.902Z,71.86
2024-04-23T00:39:22.221Z,70.89
2024-04-23T00:41:49.183Z,71.43
2024-04-23T00:44:21.531Z,71.08
2024-04-23T00:46:48.950Z,70.94
2024-04-23T00:49:19.995Z,71.91
2024-04-23T00:51:49.539Z,72.89
2024-04-23T00:54:19.054Z,72.93
2024-04-23T00:56:46.125Z,72.90
2024-04-23T00:59:16.647Z,72.57
2024-04-23T01:01:46.778Z,71.73
2024-04-23T01:04:16.436Z,72.18
2024-04-23T01:06:43.413Z,71.03
2024-04-23T01:09:13.003Z,71.92
2024-04-23T01:11:39.822Z,70.56
2024-04-23T01:14:09.204Z,71.07
2024-04-23T01:16:38.732Z,71.46
2024-04-23T01:19:14.448Z,73.71
2024-04-23T01:21:45.208Z,74.23
2024-04-23T01:24:20.954Z,74.77
2024-04-23T01:26:50.553Z,75.05
2024-04-23T01:29:19.908Z,75.06
2024-04-23T01:31:46.707Z,74.90
2024-04-23T01:34:16.197Z,74.98
2024-04-23T01:36:43.247Z,73.90
2024-04-23T01:39:13.132Z,73.12
2024-04-23T01:41:40.004Z,73.63
2024-04-23T01:44:11.956Z,73.93
2024-04-23T01:46:38.884Z,73.69
2024-04-23T01:49:08.512Z,73.72
2024-04-23T01:51:35.430Z,73.07
2024-04-23T01:54:04.753Z,73.19
2024-04-23T01:56:31.490Z,73.19
2024-04-23T01:59:00.691Z,73.91
2024-04-23T02:01:30.960Z,73.62
2024-04-23T02:04:01.400Z,73.40
2024-04-23T02:06:28.399Z,73.98
2024-04-23T02:09:01.354Z,73.23
2024-04-23T02:11:31.480Z,73.46
2024-04-23T02:14:01.089Z,74.13
2024-04-23T02:16:30.451Z,74.76
2024-04-23T02:18:59.763Z,74.02
2024-04-23T02:21:28.775Z,73.90
2024-04-23T02:23:58.084Z,73.94
2024-04-23T02:26:24.829Z,73.69
2024-04-23T02:28:54.076Z,74.05
2024-04-23T02:31:20.867Z,75.06
2024-04-23T02:33:52.632Z,74.83
2024-04-23T02:36:19.423Z,74.52
2024-04-23T02:38:48.768Z,74.41
2024-04-23T02:41:15.514Z,73.97
2024-04-23T02:43:44.695Z,74.72
2024-04-23T02:46:11.560Z,74.33
2024-04-23T02:48:41.010Z,74.38
2024-04-23T02:51:10.380Z,73.95
2024-04-23T02:53:39.693Z,73.99
2024-04-23T02:56:07.489Z,73.94
2024-04-23T02:58:36.830Z,73.35
2024-04-23T03:01:03.757Z,72.99
2024-04-23T03:03:33.488Z,73.88
2024-04-23T03:06:00.258Z,74.50
2024-04-23T03:08:34.631Z,73.05
2024-04-23T03:11:03.304Z,73.16
2024-04-23T03:13:32.720Z,74.01
2024-04-23T03:15:59.576Z,73.98
2024-04-23T03:18:28.994Z,73.17
2024-04-23T03:20:55.765Z,74.01
2024-04-23T03:23:24.939Z,73.21
2024-04-23T03:25:54.255Z,73.20
2024-04-23T03:28:23.767Z,73.88
2024-04-23T03:30:50.529Z,73.36
2024-04-23T03:33:19.881Z,73.33
2024-04-23T03:35:46.702Z,74.17
2024-04-23T03:38:16.020Z,74.64
2024-04-23T03:40:45.347Z,74.58
2024-04-23T03:43:17.391Z,74.96
2024-04-23T03:45:46.672Z,75.28
2024-04-23T03:48:16.134Z,74.72
2024-04-23T03:50:42.927Z,74.13
2024-04-23T03:53:12.125Z,74.73
2024-04-23T03:55:38.816Z,74.94
2024-04-23T03:58:08.091Z,74.35
2024-04-23T04:00:37.658Z,75.04
2024-04-23T04:03:23.117Z,75.47
2024-04-23T04:06:07.979Z,76.68
2024-04-23T04:08:39.662Z,76.87
2024-04-23T04:11:09.402Z,77.04
2024-04-23T04:13:41.731Z,76.78
2024-04-23T04:16:13.751Z,76.44
2024-04-23T04:18:40.703Z,76.36
2024-04-23T04:21:10.105Z,76.43
2024-04-23T04:23:36.852Z,75.85
2024-04-23T04:26:06.179Z,76.28
2024-04-23T04:28:35.326Z,76.57
2024-04-23T04:31:04.830Z,76.87
2024-04-23T04:33:34.269Z,77.35
2024-04-23T04:36:03.646Z,76.93
2024-04-23T04:38:30.428Z,76.79
2024-04-23T04:40:59.820Z,76.48
2024-04-23T04:43:26.647Z,76.27
2024-04-23T04:45:55.830Z,76.84
2024-04-23T04:48:22.839Z,76.00
2024-04-23T04:50:54.847Z,76.45
2024-04-23T04:53:21.744Z,75.91
2024-04-23T04:55:50.918Z,76.52
2024-04-23T04:58:20.253Z,76.19
2024-04-23T05:00:47.083Z,76.45
2024-04-23T05:03:16.421Z,75.94
2024-04-23T05:05:43.109Z,76.31
2024-04-23T05:08:14.885Z,76.45
2024-04-23T05:10:42.511Z,76.02
2024-04-23T05:13:12.025Z,75.97
2024-04-23T05:15:38.859Z,75.50
2024-04-23T05:18:08.925Z,75.44
2024-04-23T05:20:35.746Z,75.30
2024-04-23T05:23:04.983Z,74.93
2024-04-23T05:25:34.573Z,75.32
2024-04-23T05:28:03.985Z,75.44
2024-04-23T05:30:49.417Z,74.55
2024-04-23T05:33:18.785Z,74.03
2024-04-23T05:35:48.146Z,74.02
2024-04-23T05:38:17.860Z,73.92
2024-04-23T05:40:49.912Z,73.32
2024-04-23T05:43:19.301Z,73.62
2024-04-23T05:45:48.693Z,73.85
2024-04-23T05:48:55.407Z,73.44
2024-04-23T05:52:29.542Z,73.34
2024-04-23T05:55:33.554Z,73.16
2024-04-23T05:58:03.214Z,73.41
2024-04-23T06:00:32.657Z,73.70
2024-04-23T06:02:59.563Z,73.46
2024-04-23T06:05:29.042Z,73.05
2024-04-23T06:07:56.667Z,72.48
2024-04-23T06:10:26.089Z,71.99
2024-04-23T06:12:53.279Z,71.58
2024-04-23T06:15:26.096Z,71.08
2024-04-23T06:17:53.037Z,71.37
2024-04-23T06:20:22.419Z,70.87
2024-04-23T06:22:50.584Z,70.73
2024-04-23T06:25:20.754Z,70.69
2024-04-23T06:27:47.566Z,70.35
2024-04-23T06:30:17.753Z,70.03
2024-04-23T06:32:48.372Z,70.10
2024-04-23T06:35:17.846Z,69.46
2024-04-23T06:37:44.587Z,69.08
2024-04-23T06:40:14.409Z,69.07
2024-04-23T06:42:43.745Z,69.37
2024-04-23T06:45:10.492Z,68.15
2024-04-23T06:47:39.879Z,68.62
2024-04-23T06:50:09.728Z,67.95
2024-04-23T06:52:39.165Z,66.59
2024-04-23T06:55:06.047Z,65.78
2024-04-23T06:57:35.692Z,65.43
2024-04-23T07:00:02.677Z,64.91
2024-04-23T07:02:32.543Z,65.33
2024-04-23T07:04:59.660Z,62.94
2024-04-23T07:07:31.735Z,63.39
2024-04-23T07:09:59.491Z,62.44
2024-04-23T07:12:28.794Z,61.14
2024-04-23T07:14:55.579Z,60.67
2024-04-23T07:17:24.997Z,60.86
2024-04-23T07:19:52.453Z,59.32
2024-04-23T07:22:21.999Z,58.06
2024-04-23T07:24:51.316Z,57.61
2024-04-23T07:27:20.668Z,57.99
2024-04-23T07:29:47.398Z,57.51
2024-04-23T07:32:18.842Z,56.59
2024-04-23T07:34:45.866Z,55.83
2024-04-23T07:37:16.055Z,56.12
2024-04-23T07:39:42.816Z,54.39
2024-04-23T07:42:14.717Z,54.12
2024-04-23T07:44:41.558Z,52.66
2024-04-23T07:47:10.936Z,52.37
2024-04-23T07:49:39.580Z,52.03
2024-04-23T07:52:09.155Z,50.55
2024-04-23T07:54:35.915Z,48.86
2024-04-23T07:57:05.379Z,48.08
2024-04-23T07:59:34.695Z,47.37
2024-04-23T08:02:04.101Z,45.88
2024-04-23T08:04:30.933Z,45.26
2024-04-23T08:07:00.304Z,46.34
2024-04-23T08:09:27.182Z,45.64
2024-04-23T08:11:56.648Z,45.81
2024-04-23T08:14:23.433Z,45.24
2024-04-23T08:16:55.510Z,42.38
2024-04-23T08:19:22.291Z,43.36
2024-04-23T08:21:51.625Z,43.70
2024-04-23T08:24:18.387Z,43.05
2024-04-23T08:26:47.730Z,41.82
2024-04-23T08:29:14.452Z,41.10
2024-04-23T08:31:43.802Z,38.21
2024-04-23T08:34:14.189Z,37.90
2024-04-23T08:36:43.794Z,37.67
2024-04-23T08:39:10.536Z,38.23
2024-04-23T08:41:43.255Z,38.44
2024-04-23T08:44:11.345Z,37.73
2024-04-23T08:46:41.701Z,37.44
2024-04-23T08:49:09.947Z,36.94
2024-04-23T08:51:42.351Z,36.53
2024-04-23T08:54:10.781Z,36.50
2024-04-23T08:56:44.489Z,36.79
2024-04-23T08:59:14.501Z,36.98
2024-04-23T09:01:45.179Z,36.24
2024-04-23T09:04:12.106Z,35.91
2024-04-23T09:06:44.285Z,36.34
2024-04-23T09:09:12.963Z,35.98
2024-04-23T09:11:43.787Z,37.03
2024-04-23T09:14:11.461Z,36.95
2024-04-23T09:16:40.905Z,36.46
2024-04-23T09:19:07.684Z,36.75
2024-04-23T09:21:37.274Z,36.55
2024-04-23T09:24:07.759Z,37.02
2024-04-23T09:26:37.562Z,37.17
2024-04-23T09:29:05.967Z,37.23
2024-04-23T09:31:39.446Z,36.80
2024-04-23T09:34:11.531Z,37.03
2024-04-23T09:36:41.232Z,36.50
2024-04-23T09:39:18.141Z,36.88
2024-04-23T09:41:58.714Z,37.75
2024-04-23T09:44:26.067Z,37.65
2024-04-23T09:46:55.650Z,37.08
2024-04-23T09:49:24.673Z,36.93
2024-04-23T09:51:54.644Z,36.74
2024-04-23T09:54:23.998Z,36.24
2024-04-23T09:57:03.881Z,35.68
2024-04-23T09:59:30.684Z,35.70
2024-04-23T10:02:01.210Z,35.35
2024-04-23T10:04:30.762Z,36.37
2024-04-23T10:07:05.808Z,35.23
2024-04-23T10:09:35.209Z,35.39
2024-04-23T10:12:08.464Z,34.61
2024-04-23T10:14:42.094Z,33.89
2024-04-23T10:17:15.183Z,34.36
2024-04-23T10:19:44.946Z,32.88
2024-04-23T10:22:15.224Z,34.00
2024-04-23T10:24:45.244Z,34.71
2024-04-23T10:27:14.844Z,33.79
2024-04-23T10:29:42.415Z,33.53
2024-04-23T10:32:11.808Z,32.94
2024-04-23T10:34:40.048Z,32.93
2024-04-23T10:37:10.239Z,33.87
2024-04-23T10:39:38.047Z,33.52
2024-04-23T10:42:10.911Z,33.54
2024-04-23T10:44:37.853Z,33.82
2024-04-23T10:47:08.123Z,33.15
2024-04-23T10:49:38.401Z,32.88
2024-04-23T10:52:08.737Z,33.66
2024-04-23T10:54:35.612Z,33.07
2024-04-23T10:57:08.533Z,32.91
2024-04-23T10:59:38.615Z,32.58
2024-04-23T11:02:10.845Z,32.40
2024-04-23T11:04:43.682Z,31.97
2024-04-23T11:07:12.032Z,31.82
2024-04-23T11:09:42.768Z,31.65
2024-04-23T11:12:17.726Z,32.35
2024-04-23T11:14:50.165Z,31.38
2024-04-23T11:17:18.053Z,31.13
2024-04-23T11:19:49.516Z,30.51
2024-04-23T11:22:17.346Z,30.04
2024-04-23T11:24:48.172Z,30.01
2024-04-23T11:27:15.955Z,30.54
2024-04-23T11:29:46.347Z,29.84
2024-04-23T11:32:17.423Z,29.96
2024-04-23T11:34:48.029Z,30.04
2024-04-23T11:37:21.376Z,30.57
2024-04-23T11:39:57.713Z,29.73
2024-04-23T11:42:25.178Z,28.94
2024-04-23T11:44:54.555Z,29.36
2024-04-23T11:47:27.582Z,29.69
2024-04-23T11:49:58.759Z,29.64
2024-04-23T11:52:25.633Z,28.21
2024-04-23T11:54:55.506Z,29.41
2024-04-23T11:57:22.378Z,29.95
2024-04-23T11:59:51.824Z,29.16
2024-04-23T12:02:18.897Z,28.17
2024-04-23T12:04:51.111Z,28.50
2024-04-23T12:07:18.037Z,27.48
2024-04-23T12:09:53.411Z,27.61
2024-04-23T12:12:20.782Z,28.55
2024-04-23T12:14:50.427Z,28.91
2024-04-23T12:17:17.476Z,28.30
2024-04-23T12:19:47.520Z,29.13
2024-04-23T12:22:17.829Z,28.23
2024-04-23T12:24:47.509Z,28.68
2024-04-23T12:27:17.569Z,29.69
2024-04-23T12:29:47.570Z,28.33
2024-04-23T12:32:14.488Z,28.43
2024-04-23T12:34:43.939Z,28.20
2024-04-23T12:37:10.791Z,28.12
2024-04-23T12:39:43.132Z,27.92
2024-04-23T12:42:12.978Z,27.75
2024-04-23T12:44:42.383Z,28.82
2024-04-23T12:47:11.071Z,29.29
2024-04-23T12:49:41.607Z,29.80
2024-04-23T12:52:08.404Z,29.57
2024-04-23T12:54:39.809Z,28.71
2024-04-23T12:57:10.605Z,28.41
2024-04-23T12:59:39.955Z,28.12
2024-04-23T13:02:09.251Z,27.18
2024-04-23T13:04:38.905Z,27.71
2024-04-23T13:07:05.934Z,27.29
2024-04-23T13:09:35.345Z,28.55
2024-04-23T13:12:04.278Z,28.61
2024-04-23T13:14:37.501Z,28.74
2024-04-23T13:17:04.581Z,28.24
2024-04-23T13:19:33.911Z,27.78
2024-04-23T13:22:01.726Z,27.41
2024-04-23T13:24:33.970Z,27.00
2024-04-23T13:27:00.899Z,27.98
2024-04-23T13:29:31.926Z,27.76
2024-04-23T13:32:01.978Z,28.28
2024-04-23T13:34:31.541Z,28.28
2024-04-23T13:36:58.961Z,27.45
2024-04-23T13:39:28.294Z,27.98
2024-04-23T13:41:55.061Z,27.44
2024-04-23T13:44:24.454Z,27.15
2024-04-23T13:46:51.218Z,27.05
2024-04-23T13:49:23.120Z,28.05
2024-04-23T13:51:49.942Z,28.97
2024-04-23T13:54:19.336Z,28.40
2024-04-23T13:56:46.089Z,28.33
2024-04-23T13:59:17.828Z,29.13
2024-04-23T14:01:44.866Z,29.51
2024-04-23T14:04:14.644Z,29.51
2024-04-23T14:06:44.017Z,29.96
2024-04-23T14:09:13.483Z,30.25
2024-04-23T14:11:40.243Z,30.77
2024-04-23T14:14:10.005Z,30.70
2024-04-23T14:16:37.078Z,30.38
2024-04-23T14:19:06.491Z,30.40
2024-04-23T14:21:33.271Z,30.86
2024-04-23T14:24:05.195Z,31.10
2024-04-23T14:26:32.420Z,31.23
2024-04-23T14:29:01.741Z,31.56
2024-04-23T14:31:28.490Z,31.93
2024-04-23T14:33:57.829Z,32.57
2024-04-23T14:36:24.661Z,33.16
2024-04-23T14:38:54.018Z,33.88
2024-04-23T14:41:23.347Z,34.49
2024-04-23T14:43:53.212Z,34.38
2024-04-23T14:46:22.872Z,35.58
2024-04-23T14:48:49.679Z,35.07
2024-04-23T14:51:18.988Z,34.54
2024-04-23T14:53:45.870Z,34.51
2024-04-23T14:56:17.026Z,34.82
2024-04-23T14:58:46.597Z,34.90
2024-04-23T15:01:17.795Z,35.20
2024-04-23T15:03:44.862Z,35.32
2024-04-23T15:06:15.990Z,35.39
2024-04-23T15:08:43.119Z,35.92
2024-04-23T15:11:13.142Z,35.36
2024-04-23T15:13:40.085Z,35.46
2024-04-23T15:16:12.538Z,35.41
2024-04-23T15:18:40.935Z,35.58
2024-04-23T15:21:11.636Z,35.66
2024-04-23T15:23:38.546Z,35.62
2024-04-23T15:26:08.111Z,35.83
2024-04-23T15:28:36.799Z,35.61
2024-04-23T15:31:07.322Z,36.43
2024-04-23T15:33:40.027Z,37.14
2024-04-23T15:36:12.659Z,37.06
2024-04-23T15:38:46.508Z,37.08
2024-04-23T15:41:13.593Z,36.85
2024-04-23T15:43:43.304Z,36.70
2024-04-23T15:46:14.183Z,36.76
2024-04-23T15:48:46.589Z,36.88
2024-04-23T15:51:13.560Z,37.03
2024-04-23T15:53:42.912Z,36.96
2024-04-23T15:56:12.202Z,37.21
2024-04-23T15:58:42.229Z,37.74
2024-04-23T16:01:09.870Z,37.77
2024-04-23T16:03:42.004Z,37.96
2024-04-23T16:06:17.032Z,37.61
2024-04-23T16:08:46.591Z,37.74
2024-04-23T16:11:13.552Z,37.43
2024-04-23T16:13:43.103Z,37.97
2024-04-23T16:16:09.885Z,38.01
2024-04-23T16:18:39.363Z,37.92
2024-04-23T16:21:07.784Z,38.01
2024-04-23T16:23:40.234Z,37.67
2024-04-23T16:26:08.057Z,38.28
2024-04-23T16:28:37.654Z,37.73
2024-04-23T16:31:08.157Z,38.02
2024-04-23T16:33:35.575Z,38.49
2024-04-23T16:36:05.292Z,38.26
2024-04-23T16:38:32.236Z,38.77
2024-04-23T16:41:04.801Z,39.07
2024-04-23T16:43:32.291Z,38.84
2024-04-23T16:46:06.538Z,39.12
2024-04-23T16:48:34.107Z,38.78
2024-04-23T16:51:03.532Z,38.97
2024-04-23T16:53:30.398Z,39.13
2024-04-23T16:56:00.482Z,38.87
2024-04-23T16:58:30.036Z,38.80
2024-04-23T17:00:59.617Z,38.93
2024-04-23T17:03:26.505Z,39.41
2024-04-23T17:05:57.569Z,38.81
2024-04-23T17:08:27.161Z,39.32
2024-04-23T17:10:59.640Z,39.50
2024-04-23T17:13:33.522Z,39.91
2024-04-23T17:16:01.020Z,39.63
2024-04-23T17:18:30.380Z,39.86
2024-04-23T17:20:57.108Z,39.83
2024-04-23T17:23:28.844Z,39.71
2024-04-23T17:25:55.638Z,39.44
2024-04-23T17:28:24.977Z,39.48
2024-04-23T17:30:59.394Z,39.90
2024-04-23T17:33:28.775Z,40.53
2024-04-23T17:35:57.338Z,39.92
2024-04-23T17:38:26.715Z,40.91
2024-04-23T17:40:54.367Z,40.63
2024-04-23T17:43:23.774Z,40.36
2024-04-23T17:45:50.529Z,40.95
2024-04-23T17:48:22.539Z,40.94
2024-04-23T17:50:49.410Z,41.49
2024-04-23T17:53:19.024Z,41.79
2024-04-23T17:55:46.765Z,41.99
2024-04-23T17:58:17.347Z,41.88
2024-04-23T18:00:44.100Z,41.54
2024-04-23T18:03:13.425Z,42.21
2024-04-23T18:05:42.779Z,41.84
2024-04-23T18:08:12.345Z,41.60
2024-04-23T18:10:41.769Z,42.00
2024-04-23T18:13:08.547Z,42.65
2024-04-23T18:15:40.536Z,42.86
2024-04-23T18:18:09.703Z,42.38
2024-04-23T18:20:39.131Z,42.67
2024-04-23T18:23:08.492Z,43.02
2024-04-23T18:25:37.820Z,42.67
2024-04-23T18:28:05.235Z,43.32
2024-04-23T18:30:35.029Z,42.85
2024-04-23T18:33:02.047Z,42.79
2024-04-23T18:35:31.787Z,43.34
2024-04-23T18:37:58.522Z,43.23
2024-04-23T18:40:30.461Z,43.43
2024-04-23T18:42:57.444Z,43.67
2024-04-23T18:45:29.066Z,43.59
2024-04-23T18:47:58.070Z,43.62
2024-04-23T18:50:27.597Z,43.60
2024-04-23T18:52:54.494Z,43.95
2024-04-23T18:55:26.376Z,44.27
2024-04-23T18:57:58.385Z,44.32
2024-04-23T19:00:25.196Z,44.83
2024-04-23T19:02:54.649Z,45.25
2024-04-23T19:05:21.474Z,45.14
2024-04-23T19:07:51.020Z,45.40
2024-04-23T19:10:17.902Z,45.70
2024-04-23T19:12:47.383Z,46.14
2024-04-23T19:15:17.040Z,46.16
2024-04-23T19:17:46.442Z,46.36
2024-04-23T19:20:13.994Z,46.71
2024-04-23T19:22:43.546Z,46.46
2024-04-23T19:25:10.332Z,46.73
2024-04-23T19:27:39.706Z,46.55
2024-04-23T19:30:07.778Z,47.01
2024-04-23T19:32:39.789Z,47.14
2024-04-23T19:35:06.845Z,47.56
2024-04-23T19:37:36.223Z,47.46
2024-04-23T19:40:03.065Z,47.28
2024-04-23T19:42:32.387Z,47.05
2024-04-23T19:44:59.148Z,48.08
2024-04-23T19:47:28.527Z,47.46
2024-04-23T19:49:57.884Z,47.89
2024-04-23T19:52:27.435Z,48.55
2024-04-23T19:54:54.238Z,48.51
2024-04-23T19:57:39.579Z,48.76
2024-04-23T20:00:10.113Z,49.01
2024-04-23T20:02:39.544Z,49.25
2024-04-23T20:05:11.814Z,49.11
2024-04-23T20:07:41.703Z,49.01
2024-04-23T20:10:11.098Z,49.44
2024-04-23T20:12:40.540Z,49.37
2024-04-23T20:15:10.108Z,49.53
2024-04-23T20:17:39.566Z,50.09
2024-04-23T20:20:12.546Z,49.50
2024-04-23T20:22:41.997Z,49.99
2024-04-23T20:25:11.333Z,49.17
2024-04-23T20:27:40.866Z,49.81
2024-04-23T20:30:11.390Z,51.63
2024-04-23T20:32:40.839Z,51.79
2024-04-23T20:35:12.960Z,51.01
2024-04-23T20:37:43.618Z,53.89
2024-04-23T20:40:13.633Z,53.11
2024-04-23T20:42:42.930Z,53.48
2024-04-23T20:45:12.241Z,54.63
2024-04-23T20:47:41.805Z,54.97
2024-04-23T20:50:14.058Z,55.83
2024-04-23T20:52:43.961Z,57.26
2024-04-23T20:55:13.427Z,57.24
2024-04-23T20:57:43.047Z,56.59
2024-04-23T21:00:13.361Z,57.17
2024-04-23T21:02:42.910Z,57.25
2024-04-23T21:05:14.922Z,56.75
2024-04-23T21:07:44.348Z,57.52
2024-04-23T21:10:13.772Z,58.84
2024-04-23T21:12:43.116Z,58.87
2024-04-23T21:15:13.472Z,58.40
2024-04-23T21:17:42.855Z,58.04
2024-04-23T21:20:15.105Z,59.78
2024-04-23T21:22:44.477Z,60.24
2024-04-23T21:25:13.844Z,58.99
2024-04-23T21:27:43.155Z,60.75
2024-04-23T21:30:13.402Z,59.07
2024-04-23T21:32:42.996Z,57.71
2024-04-23T21:35:15.254Z,59.07
2024-04-23T21:37:44.641Z,58.55
2024-04-23T21:40:14.000Z,58.73
2024-04-23T21:42:43.430Z,57.40
2024-04-23T21:45:12.905Z,57.40
2024-04-23T21:47:39.800Z,59.67
2024-04-23T21:50:09.556Z,60.84
2024-04-23T21:52:42.216Z,60.56
2024-04-23T21:55:12.427Z,59.56
2024-04-23T21:57:42.224Z,62.53
2024-04-23T22:00:16.820Z,62.01
2024-04-23T22:02:48.068Z,60.44
2024-04-23T22:05:15.378Z,61.64
2024-04-23T22:07:48.373Z,63.43
2024-04-23T22:10:19.176Z,60.99
2024-04-23T22:12:49.694Z,62.19
2024-04-23T22:15:28.077Z,61.30
2024-04-23T22:18:04.785Z,62.15
2024-04-23T22:20:34.251Z,62.21
2024-04-23T22:23:06.501Z,62.48
2024-04-23T22:25:36.082Z,61.98
2024-04-23T22:28:05.537Z,64.17
2024-04-23T22:30:34.942Z,65.01
2024-04-23T22:33:04.341Z,65.85
2024-04-23T22:35:33.846Z,65.69
2024-04-23T22:38:06.046Z,65.62
2024-04-23T22:40:35.479Z,65.18
2024-04-23T22:43:05.199Z,63.68
2024-04-23T22:45:34.501Z,64.16
2024-04-23T22:48:03.995Z,65.88
2024-04-23T22:50:33.525Z,65.88
2024-04-23T22:53:02.864Z,65.69
2024-04-23T22:55:34.900Z,65.55
2024-04-23T22:58:04.234Z,64.50
2024-04-23T23:00:33.655Z,64.77
2024-04-23T23:03:03.166Z,63.00
2024-04-23T23:05:33.448Z,63.49
2024-04-23T23:08:02.885Z,64.36
2024-04-23T23:10:34.832Z,65.35
2024-04-23T23:13:04.190Z,64.73
2024-04-23T23:15:33.507Z,65.92
2024-04-23T23:18:00.376Z,64.28
2024-04-23T23:20:29.875Z,65.86
2024-04-23T23:22:59.342Z,64.81
2024-04-23T23:25:28.731Z,64.55
2024-04-23T23:27:58.095Z,66.92
2024-04-23T23:30:27.466Z,68.22
2024-04-23T23:32:56.932Z,68.51
2024-04-23T23:35:26.399Z,68.88
2024-04-23T23:37:55.920Z,67.83
2024-04-23T23:40:26.599Z,69.19
2024-04-23T23:43:00.741Z,69.16
2024-04-23T23:45:30.072Z,67.18
2024-04-23T23:47:59.514Z,69.32
2024-04-23T23:50:30.513Z,68.35
2024-04-23T23:52:59.902Z,69.51
2024-04-23T23:55:29.365Z,67.68
2024-04-23T23:58:01.441Z,69.28
